sensor_id;sensor_type;location;lat;lon;timestamp;pressure;altitude;pressure_sealevel;temperature;humidity
59009;BME280;44794;42.652;23.318;2023-01-16T00:00:49;94299.06;;;-0.36;100.00
59009;BME280;44794;42.652;23.318;2023-01-16T00:03:15;94290.47;;;-0.34;100.00
59009;BME280;44794;42.652;23.318;2023-01-16T00:05:42;94295.94;;;-0.43;100.00
59009;BME280;44794;42.652;23.318;2023-01-16T00:08:07;94292.31;;;-0.37;100.00
59009;BME280;44794;42.652;23.318;2023-01-16T00:10:32;94291.50;;;-0.38;100.00
59009;BME280;44794;42.652;23.318;2023-01-16T00:12:58;94295.81;;;-0.40;100.00
59009;BME280;44794;42.652;23.318;2023-01-16T00:15:23;94288.38;;;-0.46;100.00
59009;BME280;44794;42.652;23.318;2023-01-16T00:17:49;94287.50;;;-0.45;100.00
59009;BME280;44794;42.652;23.318;2023-01-16T00:20:15;94291.94;;;-0.50;100.00
59009;BME280;44794;42.652;23.318;2023-01-16T00:22:41;94291.81;;;-0.47;100.00
59009;BME280;44794;42.652;23.318;2023-01-16T00:25:07;94291.59;;;-0.41;100.00
59009;BME280;44794;42.652;23.318;2023-01-16T00:27:32;94282.66;;;-0.29;100.00
59009;BME280;44794;42.652;23.318;2023-01-16T00:29:57;94282.00;;;-0.34;100.00
59009;BME280;44794;42.652;23.318;2023-01-16T00:32:23;94279.00;;;-0.45;100.00
59009;BME280;44794;42.652;23.318;2023-01-16T00:34:48;94271.59;;;-0.51;100.00
59009;BME280;44794;42.652;23.318;2023-01-16T00:37:14;94271.22;;;-0.64;100.00
59009;BME280;44794;42.652;23.318;2023-01-16T00:39:39;94277.31;;;-0.68;100.00
59009;BME280;44794;42.652;23.318;2023-01-16T00:42:06;94275.78;;;-0.72;100.00
59009;BME280;44794;42.652;23.318;2023-01-16T00:44:31;94270.00;;;-0.77;100.00
59009;BME280;44794;42.652;23.318;2023-01-16T00:46:57;94261.47;;;-0.76;100.00
59009;BME280;44794;42.652;23.318;2023-01-16T00:49:22;94258.91;;;-0.76;100.00
59009;BME280;44794;42.652;23.318;2023-01-16T00:51:48;94266.63;;;-0.77;100.00
59009;BME280;44794;42.652;23.318;2023-01-16T00:54:13;94267.44;;;-0.77;100.00
59009;BME280;44794;42.652;23.318;2023-01-16T00:56:39;94274.22;;;-0.76;100.00
59009;BME280;44794;42.652;23.318;2023-01-16T00:59:04;94265.59;;;-0.72;100.00
59009;BME280;44794;42.652;23.318;2023-01-16T01:01:30;94265.34;;;-0.66;100.00
59009;BME280;44794;42.652;23.318;2023-01-16T01:03:57;94270.88;;;-0.55;100.00
59009;BME280;44794;42.652;23.318;2023-01-16T01:06:23;94256.34;;;-0.53;100.00
59009;BME280;44794;42.652;23.318;2023-01-16T01:08:49;94259.56;;;-0.48;100.00
59009;BME280;44794;42.652;23.318;2023-01-16T01:11:14;94267.03;;;-0.43;100.00
59009;BME280;44794;42.652;23.318;2023-01-16T01:13:41;94261.13;;;-0.44;100.00
59009;BME280;44794;42.652;23.318;2023-01-16T01:16:07;94256.03;;;-0.44;100.00
59009;BME280;44794;42.652;23.318;2023-01-16T01:18:33;94259.94;;;-0.35;100.00
59009;BME280;44794;42.652;23.318;2023-01-16T01:20:58;94256.03;;;-0.44;100.00
59009;BME280;44794;42.652;23.318;2023-01-16T01:23:24;94252.94;;;-0.30;100.00
59009;BME280;44794;42.652;23.318;2023-01-16T01:25:49;94251.88;;;-0.25;100.00
59009;BME280;44794;42.652;23.318;2023-01-16T01:28:15;94252.41;;;-0.17;100.00
59009;BME280;44794;42.652;23.318;2023-01-16T01:30:41;94243.63;;;-0.10;100.00
59009;BME280;44794;42.652;23.318;2023-01-16T01:33:06;94240.13;;;-0.07;100.00
59009;BME280;44794;42.652;23.318;2023-01-16T01:35:32;94240.47;;;0.05;100.00
59009;BME280;44794;42.652;23.318;2023-01-16T01:37:57;94229.25;;;0.09;100.00
59009;BME280;44794;42.652;23.318;2023-01-16T01:40:23;94230.00;;;0.11;100.00
59009;BME280;44794;42.652;23.318;2023-01-16T01:42:49;94229.59;;;0.21;100.00
59009;BME280;44794;42.652;23.318;2023-01-16T01:45:21;94215.59;;;0.30;100.00
59009;BME280;44794;42.652;23.318;2023-01-16T01:48:15;94207.06;;;0.31;100.00
59009;BME280;44794;42.652;23.318;2023-01-16T01:50:48;94213.94;;;0.29;100.00
59009;BME280;44794;42.652;23.318;2023-01-16T01:56:10;94212.94;;;0.33;100.00
59009;BME280;44794;42.652;23.318;2023-01-16T01:58:38;94211.28;;;0.32;100.00
59009;BME280;44794;42.652;23.318;2023-01-16T02:01:04;94215.50;;;0.33;100.00
59009;BME280;44794;42.652;23.318;2023-01-16T02:03:37;94208.97;;;0.26;100.00
59009;BME280;44794;42.652;23.318;2023-01-16T02:06:08;94202.31;;;0.22;100.00
59009;BME280;44794;42.652;23.318;2023-01-16T02:08:35;94201.25;;;0.27;100.00
59009;BME280;44794;42.652;23.318;2023-01-16T02:11:15;94202.28;;;0.23;100.00
59009;BME280;44794;42.652;23.318;2023-01-16T02:14:03;94204.69;;;0.26;100.00
59009;BME280;44794;42.652;23.318;2023-01-16T02:16:30;94205.78;;;0.21;100.00
59009;BME280;44794;42.652;23.318;2023-01-16T02:25:28;94192.66;;;-0.11;100.00
59009;BME280;44794;42.652;23.318;2023-01-16T02:39:44;94172.75;;;-0.45;100.00
59009;BME280;44794;42.652;23.318;2023-01-16T02:42:30;94174.88;;;-0.56;100.00
59009;BME280;44794;42.652;23.318;2023-01-16T02:52:39;94176.00;;;-0.41;100.00
59009;BME280;44794;42.652;23.318;2023-01-16T02:55:36;94165.50;;;-0.34;100.00
59009;BME280;44794;42.652;23.318;2023-01-16T02:58:06;94159.44;;;-0.31;100.00
59009;BME280;44794;42.652;23.318;2023-01-16T03:00:33;94150.16;;;-0.32;100.00
59009;BME280;44794;42.652;23.318;2023-01-16T03:02:59;94151.75;;;-0.30;100.00
59009;BME280;44794;42.652;23.318;2023-01-16T03:05:26;94153.28;;;-0.26;100.00
59009;BME280;44794;42.652;23.318;2023-01-16T03:21:59;94130.25;;;-0.24;100.00
59009;BME280;44794;42.652;23.318;2023-01-16T03:24:59;94123.97;;;-0.16;100.00
59009;BME280;44794;42.652;23.318;2023-01-16T03:27:44;94127.97;;;-0.10;100.00
59009;BME280;44794;42.652;23.318;2023-01-16T03:30:30;94128.66;;;-0.07;100.00
59009;BME280;44794;42.652;23.318;2023-01-16T03:33:08;94116.84;;;-0.08;100.00
59009;BME280;44794;42.652;23.318;2023-01-16T03:35:41;94120.91;;;-0.04;100.00
59009;BME280;44794;42.652;23.318;2023-01-16T03:38:10;94114.91;;;-0.03;100.00
59009;BME280;44794;42.652;23.318;2023-01-16T03:40:41;94099.22;;;0.06;100.00
59009;BME280;44794;42.652;23.318;2023-01-16T03:43:18;94096.59;;;0.07;100.00
59009;BME280;44794;42.652;23.318;2023-01-16T03:45:50;94096.53;;;0.09;100.00
59009;BME280;44794;42.652;23.318;2023-01-16T03:48:18;94092.06;;;0.14;100.00
59009;BME280;44794;42.652;23.318;2023-01-16T03:50:55;94086.97;;;0.14;100.00
59009;BME280;44794;42.652;23.318;2023-01-16T03:53:27;94087.59;;;0.19;100.00
59009;BME280;44794;42.652;23.318;2023-01-16T03:58:35;94085.16;;;0.16;100.00
59009;BME280;44794;42.652;23.318;2023-01-16T04:01:09;94085.31;;;0.13;100.00
59009;BME280;44794;42.652;23.318;2023-01-16T04:03:43;94094.69;;;-0.07;100.00
59009;BME280;44794;42.652;23.318;2023-01-16T04:06:17;94094.13;;;0.06;100.00
59009;BME280;44794;42.652;23.318;2023-01-16T04:08:45;94092.72;;;-0.01;100.00
59009;BME280;44794;42.652;23.318;2023-01-16T04:11:13;94091.84;;;0.00;100.00
59009;BME280;44794;42.652;23.318;2023-01-16T04:13:41;94084.72;;;0.06;100.00
59009;BME280;44794;42.652;23.318;2023-01-16T04:16:10;94075.91;;;0.13;100.00
59009;BME280;44794;42.652;23.318;2023-01-16T04:18:39;94088.16;;;0.05;100.00
59009;BME280;44794;42.652;23.318;2023-01-16T04:21:06;94083.03;;;0.07;100.00
59009;BME280;44794;42.652;23.318;2023-01-16T04:23:34;94083.84;;;0.07;100.00
59009;BME280;44794;42.652;23.318;2023-01-16T04:26:00;94083.75;;;0.09;100.00
59009;BME280;44794;42.652;23.318;2023-01-16T04:28:25;94078.72;;;0.07;100.00
59009;BME280;44794;42.652;23.318;2023-01-16T04:30:51;94079.78;;;0.03;100.00
59009;BME280;44794;42.652;23.318;2023-01-16T04:33:16;94083.13;;;0.04;100.00
59009;BME280;44794;42.652;23.318;2023-01-16T04:35:42;94072.31;;;-0.01;100.00
59009;BME280;44794;42.652;23.318;2023-01-16T04:38:07;94065.16;;;0.07;100.00
59009;BME280;44794;42.652;23.318;2023-01-16T04:40:33;94069.31;;;0.09;100.00
59009;BME280;44794;42.652;23.318;2023-01-16T04:42:58;94066.69;;;0.11;100.00
59009;BME280;44794;42.652;23.318;2023-01-16T04:45:24;94065.84;;;0.10;100.00
59009;BME280;44794;42.652;23.318;2023-01-16T04:47:51;94071.34;;;0.01;100.00
59009;BME280;44794;42.652;23.318;2023-01-16T04:50:17;94061.84;;;0.05;100.00
59009;BME280;44794;42.652;23.318;2023-01-16T04:52:43;94065.09;;;0.08;100.00
59009;BME280;44794;42.652;23.318;2023-01-16T04:55:09;94064.88;;;0.13;100.00
59009;BME280;44794;42.652;23.318;2023-01-16T04:57:34;94057.94;;;0.16;100.00
59009;BME280;44794;42.652;23.318;2023-01-16T05:00:00;94064.81;;;0.14;100.00
59009;BME280;44794;42.652;23.318;2023-01-16T05:02:26;94052.75;;;0.18;100.00
59009;BME280;44794;42.652;23.318;2023-01-16T05:04:51;94056.34;;;0.14;100.00
59009;BME280;44794;42.652;23.318;2023-01-16T05:07:17;94065.00;;;0.10;100.00
59009;BME280;44794;42.652;23.318;2023-01-16T05:09:42;94065.38;;;0.01;100.00
59009;BME280;44794;42.652;23.318;2023-01-16T05:12:08;94060.06;;;0.07;100.00
59009;BME280;44794;42.652;23.318;2023-01-16T05:14:33;94058.41;;;0.06;100.00
59009;BME280;44794;42.652;23.318;2023-01-16T05:16:59;94056.72;;;0.05;100.00
59009;BME280;44794;42.652;23.318;2023-01-16T05:19:24;94046.44;;;0.06;100.00
59009;BME280;44794;42.652;23.318;2023-01-16T05:21:50;94051.63;;;0.05;100.00
59009;BME280;44794;42.652;23.318;2023-01-16T05:24:15;94043.19;;;0.03;100.00
59009;BME280;44794;42.652;23.318;2023-01-16T05:26:41;94045.81;;;0.01;100.00
59009;BME280;44794;42.652;23.318;2023-01-16T05:29:07;94047.50;;;0.02;100.00
59009;BME280;44794;42.652;23.318;2023-01-16T05:31:32;94044.78;;;0.05;100.00
59009;BME280;44794;42.652;23.318;2023-01-16T05:33:58;94049.19;;;0.02;100.00
59009;BME280;44794;42.652;23.318;2023-01-16T05:36:23;94038.56;;;-0.07;100.00
59009;BME280;44794;42.652;23.318;2023-01-16T05:38:49;94035.94;;;-0.06;100.00
59009;BME280;44794;42.652;23.318;2023-01-16T05:41:16;94028.28;;;-0.06;100.00
59009;BME280;44794;42.652;23.318;2023-01-16T05:43:41;94026.06;;;-0.33;100.00
59009;BME280;44794;42.652;23.318;2023-01-16T05:46:07;94029.09;;;-0.45;100.00
59009;BME280;44794;42.652;23.318;2023-01-16T05:48:33;94028.38;;;-0.27;100.00
59009;BME280;44794;42.652;23.318;2023-01-16T05:51:01;94029.06;;;-0.24;100.00
59009;BME280;44794;42.652;23.318;2023-01-16T05:53:26;94026.19;;;-0.16;100.00
59009;BME280;44794;42.652;23.318;2023-01-16T05:55:54;94026.38;;;-0.01;100.00
59009;BME280;44794;42.652;23.318;2023-01-16T05:58:19;94023.09;;;0.15;100.00
59009;BME280;44794;42.652;23.318;2023-01-16T06:00:45;94012.81;;;0.17;100.00
59009;BME280;44794;42.652;23.318;2023-01-16T06:03:10;94011.91;;;0.18;100.00
59009;BME280;44794;42.652;23.318;2023-01-16T06:05:36;94009.28;;;0.19;100.00
59009;BME280;44794;42.652;23.318;2023-01-16T06:08:02;93998.69;;;0.28;100.00
59009;BME280;44794;42.652;23.318;2023-01-16T06:10:28;93999.50;;;0.29;100.00
59009;BME280;44794;42.652;23.318;2023-01-16T06:12:54;93999.94;;;0.38;100.00
59009;BME280;44794;42.652;23.318;2023-01-16T06:15:19;93996.25;;;0.44;100.00
59009;BME280;44794;42.652;23.318;2023-01-16T06:17:45;93984.25;;;0.46;100.00
59009;BME280;44794;42.652;23.318;2023-01-16T06:20:11;93991.50;;;0.55;100.00
59009;BME280;44794;42.652;23.318;2023-01-16T06:22:37;93992.00;;;0.63;100.00
59009;BME280;44794;42.652;23.318;2023-01-16T06:25:03;94010.56;;;0.66;100.00
59009;BME280;44794;42.652;23.318;2023-01-16T06:27:29;94015.22;;;0.57;100.00
59009;BME280;44794;42.652;23.318;2023-01-16T06:29:54;94020.63;;;0.69;100.00
59009;BME280;44794;42.652;23.318;2023-01-16T06:32:20;94017.66;;;0.78;100.00
59009;BME280;44794;42.652;23.318;2023-01-16T06:34:45;94021.50;;;0.86;100.00
59009;BME280;44794;42.652;23.318;2023-01-16T06:37:11;94025.59;;;0.90;100.00
59009;BME280;44794;42.652;23.318;2023-01-16T06:39:36;94026.63;;;0.86;100.00
59009;BME280;44794;42.652;23.318;2023-01-16T06:42:03;94037.88;;;1.01;100.00
59009;BME280;44794;42.652;23.318;2023-01-16T06:44:30;94032.19;;;1.13;100.00
59009;BME280;44794;42.652;23.318;2023-01-16T06:46:56;94022.72;;;1.15;100.00
59009;BME280;44794;42.652;23.318;2023-01-16T06:49:22;94025.44;;;1.29;100.00
59009;BME280;44794;42.652;23.318;2023-01-16T06:51:48;94020.03;;;1.35;100.00
59009;BME280;44794;42.652;23.318;2023-01-16T06:54:14;94000.53;;;1.49;100.00
59009;BME280;44794;42.652;23.318;2023-01-16T06:56:39;94006.56;;;1.65;100.00
59009;BME280;44794;42.652;23.318;2023-01-16T06:59:05;94016.88;;;1.80;100.00
59009;BME280;44794;42.652;23.318;2023-01-16T07:01:30;94016.50;;;1.88;100.00
59009;BME280;44794;42.652;23.318;2023-01-16T07:03:56;94027.63;;;1.87;100.00
59009;BME280;44794;42.652;23.318;2023-01-16T07:06:21;94037.56;;;1.93;100.00
59009;BME280;44794;42.652;23.318;2023-01-16T07:08:47;94021.13;;;2.14;100.00
59009;BME280;44794;42.652;23.318;2023-01-16T07:11:19;94036.38;;;2.32;100.00
59009;BME280;44794;42.652;23.318;2023-01-16T07:13:44;94041.38;;;2.18;100.00
59009;BME280;44794;42.652;23.318;2023-01-16T07:16:11;94032.06;;;2.32;100.00
59009;BME280;44794;42.652;23.318;2023-01-16T07:18:56;94027.28;;;2.26;100.00
59009;BME280;44794;42.652;23.318;2023-01-16T07:21:43;94035.63;;;2.30;100.00
59009;BME280;44794;42.652;23.318;2023-01-16T07:24:30;94035.06;;;2.40;100.00
59009;BME280;44794;42.652;23.318;2023-01-16T07:26:59;94040.44;;;2.51;100.00
59009;BME280;44794;42.652;23.318;2023-01-16T07:29:28;94048.66;;;2.73;100.00
59009;BME280;44794;42.652;23.318;2023-01-16T07:31:55;94032.81;;;2.82;100.00
59009;BME280;44794;42.652;23.318;2023-01-16T07:34:21;94047.19;;;2.85;100.00
59009;BME280;44794;42.652;23.318;2023-01-16T07:36:47;94039.13;;;2.92;100.00
59009;BME280;44794;42.652;23.318;2023-01-16T07:39:13;94049.94;;;2.97;100.00
59009;BME280;44794;42.652;23.318;2023-01-16T07:41:38;94039.78;;;2.96;100.00
59009;BME280;44794;42.652;23.318;2023-01-16T07:44:04;94045.72;;;2.96;100.00
59009;BME280;44794;42.652;23.318;2023-01-16T07:46:29;94057.69;;;2.80;100.00
59009;BME280;44794;42.652;23.318;2023-01-16T07:48:54;94062.34;;;2.89;100.00
59009;BME280;44794;42.652;23.318;2023-01-16T07:51:22;94048.28;;;2.81;100.00
59009;BME280;44794;42.652;23.318;2023-01-16T07:53:47;94043.59;;;2.89;100.00
59009;BME280;44794;42.652;23.318;2023-01-16T07:56:13;94031.47;;;2.91;100.00
59009;BME280;44794;42.652;23.318;2023-01-16T07:58:38;94034.13;;;3.04;100.00
59009;BME280;44794;42.652;23.318;2023-01-16T08:01:06;94028.53;;;2.98;100.00
59009;BME280;44794;42.652;23.318;2023-01-16T08:03:32;94035.69;;;3.07;100.00
59009;BME280;44794;42.652;23.318;2023-01-16T08:05:58;94040.75;;;3.24;100.00
59009;BME280;44794;42.652;23.318;2023-01-16T08:08:24;94024.38;;;3.11;100.00
59009;BME280;44794;42.652;23.318;2023-01-16T08:10:58;94049.84;;;3.29;100.00
59009;BME280;44794;42.652;23.318;2023-01-16T08:13:25;94038.25;;;3.07;100.00
59009;BME280;44794;42.652;23.318;2023-01-16T08:15:51;94046.47;;;2.98;100.00
59009;BME280;44794;42.652;23.318;2023-01-16T08:18:17;94056.63;;;2.84;100.00
59009;BME280;44794;42.652;23.318;2023-01-16T08:20:44;94064.47;;;2.66;100.00
59009;BME280;44794;42.652;23.318;2023-01-16T08:23:10;94068.59;;;2.68;100.00
59009;BME280;44794;42.652;23.318;2023-01-16T08:25:36;94069.22;;;3.04;100.00
59009;BME280;44794;42.652;23.318;2023-01-16T08:28:02;94071.38;;;3.27;100.00
59009;BME280;44794;42.652;23.318;2023-01-16T08:30:28;94064.00;;;3.36;100.00
59009;BME280;44794;42.652;23.318;2023-01-16T08:32:58;94070.03;;;3.51;100.00
59009;BME280;44794;42.652;23.318;2023-01-16T08:35:24;94060.53;;;3.82;100.00
59009;BME280;44794;42.652;23.318;2023-01-16T08:37:50;94058.91;;;3.95;100.00
59009;BME280;44794;42.652;23.318;2023-01-16T08:40:16;94054.72;;;4.08;100.00
59009;BME280;44794;42.652;23.318;2023-01-16T08:42:41;94051.72;;;4.15;100.00
59009;BME280;44794;42.652;23.318;2023-01-16T08:45:25;94047.25;;;4.33;100.00
59009;BME280;44794;42.652;23.318;2023-01-16T08:48:10;94059.09;;;4.49;100.00
59009;BME280;44794;42.652;23.318;2023-01-16T08:50:54;94056.44;;;4.64;100.00
59009;BME280;44794;42.652;23.318;2023-01-16T08:53:40;94051.56;;;4.46;100.00
59009;BME280;44794;42.652;23.318;2023-01-16T08:56:06;94058.94;;;4.66;100.00
59009;BME280;44794;42.652;23.318;2023-01-16T08:58:31;94071.22;;;4.75;99.63
59009;BME280;44794;42.652;23.318;2023-01-16T09:00:57;94074.72;;;4.88;98.08
59009;BME280;44794;42.652;23.318;2023-01-16T09:03:22;94060.00;;;4.90;98.50
59009;BME280;44794;42.652;23.318;2023-01-16T09:05:48;94055.63;;;4.92;97.15
59009;BME280;44794;42.652;23.318;2023-01-16T09:08:13;94053.38;;;5.14;96.50
59009;BME280;44794;42.652;23.318;2023-01-16T09:10:39;94057.63;;;5.15;95.25
59009;BME280;44794;42.652;23.318;2023-01-16T09:13:24;94051.81;;;5.25;93.93
59009;BME280;44794;42.652;23.318;2023-01-16T09:16:08;94058.78;;;5.23;93.79
59009;BME280;44794;42.652;23.318;2023-01-16T09:18:34;94054.16;;;5.28;93.29
59009;BME280;44794;42.652;23.318;2023-01-16T09:20:59;94040.34;;;5.43;93.40
59009;BME280;44794;42.652;23.318;2023-01-16T09:23:25;94040.63;;;5.65;92.69
59009;BME280;44794;42.652;23.318;2023-01-16T09:25:50;94034.97;;;5.72;92.50
59009;BME280;44794;42.652;23.318;2023-01-16T09:28:19;94027.91;;;5.49;92.85
59009;BME280;44794;42.652;23.318;2023-01-16T09:30:44;94030.41;;;5.77;92.38
59009;BME280;44794;42.652;23.318;2023-01-16T09:33:10;94024.66;;;5.86;91.60
59009;BME280;44794;42.652;23.318;2023-01-16T09:35:35;94024.06;;;5.95;90.47
59009;BME280;44794;42.652;23.318;2023-01-16T09:38:01;94024.66;;;5.86;89.28
59009;BME280;44794;42.652;23.318;2023-01-16T09:40:26;94028.31;;;5.43;90.12
59009;BME280;44794;42.652;23.318;2023-01-16T09:43:15;94023.22;;;5.29;92.29
59009;BME280;44794;42.652;23.318;2023-01-16T09:48:46;94004.13;;;5.58;92.01
59009;BME280;44794;42.652;23.318;2023-01-16T09:51:28;94004.69;;;5.63;91.29
59009;BME280;44794;42.652;23.318;2023-01-16T09:56:45;94000.13;;;5.81;88.87
59009;BME280;44794;42.652;23.318;2023-01-16T10:04:42;94002.25;;;6.13;86.45
59009;BME280;44794;42.652;23.318;2023-01-16T10:07:21;93999.56;;;5.76;86.44
59009;BME280;44794;42.652;23.318;2023-01-16T10:12:38;93981.63;;;6.13;87.02
59009;BME280;44794;42.652;23.318;2023-01-16T10:18:01;93969.03;;;6.46;85.10
59009;BME280;44794;42.652;23.318;2023-01-16T10:23:43;93971.13;;;7.01;83.02
59009;BME280;44794;42.652;23.318;2023-01-16T10:26:29;93960.28;;;6.96;80.98
59009;BME280;44794;42.652;23.318;2023-01-16T10:31:47;93949.63;;;7.01;81.13
59009;BME280;44794;42.652;23.318;2023-01-16T10:34:37;93931.63;;;7.12;80.83
59009;BME280;44794;42.652;23.318;2023-01-16T10:37:05;93934.38;;;7.21;79.82
59009;BME280;44794;42.652;23.318;2023-01-16T10:39:36;93932.69;;;7.33;79.16
59009;BME280;44794;42.652;23.318;2023-01-16T10:45:01;93938.84;;;6.83;79.30
59009;BME280;44794;42.652;23.318;2023-01-16T10:47:53;93919.53;;;6.41;81.50
59009;BME280;44794;42.652;23.318;2023-01-16T10:50:37;93905.13;;;6.26;83.16
59009;BME280;44794;42.652;23.318;2023-01-16T10:53:05;93899.72;;;6.41;83.07
59009;BME280;44794;42.652;23.318;2023-01-16T10:55:32;93890.94;;;6.44;82.64
59009;BME280;44794;42.652;23.318;2023-01-16T10:58:06;93890.63;;;6.61;82.46
59009;BME280;44794;42.652;23.318;2023-01-16T11:00:39;93881.41;;;6.92;81.84
59009;BME280;44794;42.652;23.318;2023-01-16T11:06:21;93872.16;;;7.13;81.10
59009;BME280;44794;42.652;23.318;2023-01-16T11:08:49;93862.09;;;7.21;80.85
59009;BME280;44794;42.652;23.318;2023-01-16T11:11:17;93845.56;;;7.24;79.59
59009;BME280;44794;42.652;23.318;2023-01-16T11:14:14;93851.72;;;6.87;79.49
59009;BME280;44794;42.652;23.318;2023-01-16T11:20:07;93846.50;;;6.40;83.74
59009;BME280;44794;42.652;23.318;2023-01-16T11:22:38;93843.63;;;6.32;83.85
59009;BME280;44794;42.652;23.318;2023-01-16T11:25:05;93842.38;;;6.38;83.64
59009;BME280;44794;42.652;23.318;2023-01-16T11:27:34;93837.28;;;6.49;83.59
59009;BME280;44794;42.652;23.318;2023-01-16T11:30:06;93833.47;;;6.77;83.30
59009;BME280;44794;42.652;23.318;2023-01-16T11:32:35;93832.09;;;6.84;82.07
59009;BME280;44794;42.652;23.318;2023-01-16T11:35:10;93833.00;;;6.96;81.42
59009;BME280;44794;42.652;23.318;2023-01-16T11:37:37;93829.53;;;7.08;80.83
59009;BME280;44794;42.652;23.318;2023-01-16T11:40:04;93829.88;;;7.03;79.87
59009;BME280;44794;42.652;23.318;2023-01-16T11:42:32;93822.94;;;7.04;78.89
59009;BME280;44794;42.652;23.318;2023-01-16T11:45:19;93821.25;;;7.26;78.88
59009;BME280;44794;42.652;23.318;2023-01-16T11:48:06;93818.75;;;7.48;78.93
59009;BME280;44794;42.652;23.318;2023-01-16T11:50:53;93822.44;;;7.67;77.33
59009;BME280;44794;42.652;23.318;2023-01-16T11:53:20;93812.47;;;7.85;75.97
59009;BME280;44794;42.652;23.318;2023-01-16T12:04:35;93784.63;;;7.21;76.47
59009;BME280;44794;42.652;23.318;2023-01-16T12:07:15;93786.22;;;7.35;77.14
59009;BME280;44794;42.652;23.318;2023-01-16T12:10:04;93788.13;;;7.65;76.77
59009;BME280;44794;42.652;23.318;2023-01-16T12:12:37;93792.97;;;7.70;75.81
59009;BME280;44794;42.652;23.318;2023-01-16T12:15:30;93787.09;;;7.90;75.67
59009;BME280;44794;42.652;23.318;2023-01-16T12:21:35;93769.91;;;7.00;77.20
59009;BME280;44794;42.652;23.318;2023-01-16T12:24:26;93763.19;;;6.97;78.18
59009;BME280;44794;42.652;23.318;2023-01-16T12:46:01;93716.16;;;5.77;84.89
59009;BME280;44794;42.652;23.318;2023-01-16T12:49:08;93719.25;;;5.57;86.37
59009;BME280;44794;42.652;23.318;2023-01-16T12:51:58;93723.75;;;5.66;86.17
59009;BME280;44794;42.652;23.318;2023-01-16T13:00:02;93715.59;;;5.72;86.41
59009;BME280;44794;42.652;23.318;2023-01-16T13:02:52;93701.50;;;5.78;85.97
59009;BME280;44794;42.652;23.318;2023-01-16T13:05:24;93684.31;;;5.78;85.48
59009;BME280;44794;42.652;23.318;2023-01-16T13:08:17;93691.34;;;5.76;86.54
59009;BME280;44794;42.652;23.318;2023-01-16T13:10:49;93694.06;;;5.98;86.56
59009;BME280;44794;42.652;23.318;2023-01-16T13:13:50;93670.44;;;6.04;84.73
59009;BME280;44794;42.652;23.318;2023-01-16T13:16:27;93661.97;;;6.02;85.13
59009;BME280;44794;42.652;23.318;2023-01-16T13:18:57;93653.03;;;5.95;85.59
59009;BME280;44794;42.652;23.318;2023-01-16T13:21:29;93657.75;;;6.01;85.10
59009;BME280;44794;42.652;23.318;2023-01-16T13:24:01;93647.66;;;5.98;85.18
59009;BME280;44794;42.652;23.318;2023-01-16T13:26:30;93641.31;;;5.91;86.07
59009;BME280;44794;42.652;23.318;2023-01-16T13:31:54;93635.28;;;5.67;86.93
59009;BME280;44794;42.652;23.318;2023-01-16T13:34:46;93658.56;;;5.78;88.33
59009;BME280;44794;42.652;23.318;2023-01-16T13:38:04;93631.66;;;5.82;87.97
59009;BME280;44794;42.652;23.318;2023-01-16T13:42:40;93656.09;;;6.00;87.57
59009;BME280;44794;42.652;23.318;2023-01-16T13:45:30;93653.75;;;6.20;87.11
59009;BME280;44794;42.652;23.318;2023-01-16T13:48:19;93651.28;;;6.19;86.02
59009;BME280;44794;42.652;23.318;2023-01-16T13:50:58;93648.81;;;6.17;85.31
59009;BME280;44794;42.652;23.318;2023-01-16T13:53:25;93629.63;;;5.98;85.60
59009;BME280;44794;42.652;23.318;2023-01-16T13:56:09;93620.59;;;5.93;86.18
59009;BME280;44794;42.652;23.318;2023-01-16T13:58:43;93612.69;;;5.83;87.05
59009;BME280;44794;42.652;23.318;2023-01-16T14:12:00;93598.75;;;5.50;89.77
59009;BME280;44794;42.652;23.318;2023-01-16T14:17:26;93616.19;;;4.86;92.18
59009;BME280;44794;42.652;23.318;2023-01-16T14:19:58;93625.75;;;4.84;93.77
59009;BME280;44794;42.652;23.318;2023-01-16T14:24:58;93622.03;;;4.88;94.33
59009;BME280;44794;42.652;23.318;2023-01-16T14:27:30;93621.09;;;5.01;94.09
59009;BME280;44794;42.652;23.318;2023-01-16T14:30:05;93611.63;;;5.02;93.87
59009;BME280;44794;42.652;23.318;2023-01-16T14:32:33;93613.88;;;5.06;93.73
59009;BME280;44794;42.652;23.318;2023-01-16T14:35:26;93614.75;;;4.69;95.06
59009;BME280;44794;42.652;23.318;2023-01-16T14:37:56;93626.88;;;4.80;95.04
59009;BME280;44794;42.652;23.318;2023-01-16T14:40:26;93612.66;;;4.99;94.65
59009;BME280;44794;42.652;23.318;2023-01-16T14:43:16;93604.50;;;5.05;94.17
59009;BME280;44794;42.652;23.318;2023-01-16T14:46:26;93604.19;;;5.10;93.57
59009;BME280;44794;42.652;23.318;2023-01-16T14:49:41;93612.47;;;4.90;92.49
59009;BME280;44794;42.652;23.318;2023-01-16T14:55:31;93613.72;;;4.72;93.24
59009;BME280;44794;42.652;23.318;2023-01-16T14:57:58;93618.44;;;4.65;93.79
59009;BME280;44794;42.652;23.318;2023-01-16T15:00:25;93611.44;;;4.55;93.92
59009;BME280;44794;42.652;23.318;2023-01-16T15:02:58;93594.28;;;4.55;93.98
59009;BME280;44794;42.652;23.318;2023-01-16T15:05:33;93582.75;;;4.61;93.92
59009;BME280;44794;42.652;23.318;2023-01-16T15:08:23;93591.59;;;4.44;93.82
59009;BME280;44794;42.652;23.318;2023-01-16T15:10:51;93603.69;;;4.43;94.56
59009;BME280;44794;42.652;23.318;2023-01-16T15:13:26;93601.66;;;4.35;94.94
59009;BME280;44794;42.652;23.318;2023-01-16T15:16:17;93575.44;;;4.30;95.40
59009;BME280;44794;42.652;23.318;2023-01-16T15:18:43;93566.78;;;4.19;95.61
59009;BME280;44794;42.652;23.318;2023-01-16T15:21:27;93599.41;;;3.92;97.48
59009;BME280;44794;42.652;23.318;2023-01-16T15:24:21;93567.22;;;4.13;97.61
59009;BME280;44794;42.652;23.318;2023-01-16T15:27:02;93570.25;;;4.05;97.72
59009;BME280;44794;42.652;23.318;2023-01-16T15:32:02;93570.38;;;4.04;98.45
59009;BME280;44794;42.652;23.318;2023-01-16T15:34:30;93593.72;;;3.87;99.35